Time;durP1;ratioP1;P1;durP2;ratioP2;P2;SDS_P1;SDS_P2;PMS_P1;PMS_P2;Temp;Humidity;BMP_temperature;BMP_pressure;BME280_temperature;BME280_humidity;BME280_pressure;Samples;Min_cycle;Max_cycle;Signal;HPM_P1;HPM_P2
2023/04/15 00:00:53;;;;;;;;;;;;;;;9.47;62.07;93888.00;4190417;28;19924;-44
2023/04/15 00:02:55;;;;;;;;;;;;;;;9.08;63.66;93907.09;4191777;28;19964;-44
2023/04/15 00:04:57;;;;;;;;;;;;;;;8.73;64.98;93911.78;4190691;28;20498;-44
2023/04/15 00:06:59;;;;;;;;;;;;;;;8.86;64.27;93895.59;4193007;28;19975;-43
2023/04/15 00:09:01;;;;;;;;;;;;;;;9.15;63.34;93895.00;4191527;28;19999;-45
2023/04/15 00:11:04;;;;;;;;;;;;;;;9.46;61.57;93899.44;4192541;28;19924;-43
2023/04/15 00:13:06;;;;;;;;;;;;;;;9.59;61.73;93894.44;4190975;28;19924;-45
2023/04/15 00:15:08;;;;;;;;;;;;;;;9.74;60.06;93891.91;4190598;28;19933;-46
2023/04/15 00:17:09;;;;;;;;;;;;;;;9.74;61.48;93890.09;4189921;28;19928;-43
2023/04/15 00:19:11;;;;;;;;;;;;;;;9.80;61.46;93891.22;4191088;28;19956;-45
2023/04/15 00:21:13;;;;;;;;;;;;;;;9.85;61.48;93891.50;4188283;28;20333;-45
2023/04/15 00:23:15;;;;;;;;;;;;;;;9.81;61.63;93890.25;4190440;28;19932;-42
2023/04/15 00:25:16;;;;;;;;;;;;;;;9.84;62.12;93887.25;4190906;28;19928;-41
2023/04/15 00:27:18;;;;;;;;;;;;;;;10.01;61.40;93885.34;4190106;28;19972;-44
2023/04/15 00:29:20;;;;;;;;;;;;;;;10.13;60.97;93888.34;4191382;28;19951;-44
2023/04/15 00:31:21;;;;;;;;;;;;;;;10.23;61.07;93889.72;4191641;28;20324;-56
2023/04/15 00:33:23;;;;;;;;;;;;;;;10.40;60.57;93889.63;4190551;28;19938;-56
2023/04/15 00:35:25;;;;;;;;;;;;;;;10.43;60.23;93889.25;4191910;28;19925;-57
2023/04/15 00:37:26;;;;;;;;;;;;;;;10.50;60.37;93894.63;4191595;28;19959;-56
2023/04/15 00:39:28;;;;;;;;;;;;;;;10.54;60.76;93896.72;4190990;28;19942;-54
2023/04/15 00:41:30;;;;;;;;;;;;;;;10.57;60.57;93895.53;4192165;28;19924;-50
2023/04/15 00:43:32;;;;;;;;;;;;;;;10.59;60.89;93886.50;4191135;28;19929;-52
2023/04/15 00:45:34;;;;;;;;;;;;;;;10.54;61.49;93888.84;4193716;28;19924;-52
2023/04/15 00:47:36;;;;;;;;;;;;;;;10.50;61.21;93892.81;4192600;28;19956;-54
2023/04/15 00:49:37;;;;;;;;;;;;;;;10.42;61.00;93890.28;4193721;28;20376;-53
2023/04/15 00:51:39;;;;;;;;;;;;;;;10.41;62.63;93878.16;4195031;28;19928;-53
2023/04/15 00:53:40;;;;;;;;;;;;;;;10.45;62.53;93884.66;4194158;28;19943;-52
2023/04/15 00:55:42;;;;;;;;;;;;;;;10.48;62.67;93881.72;4192388;28;19940;-54
2023/04/15 00:57:43;;;;;;;;;;;;;;;10.52;62.58;93890.00;4191577;28;20024;-52
2023/04/15 00:59:45;;;;;;;;;;;;;;;10.49;62.34;93885.13;4190967;28;20517;-55
2023/04/15 01:01:47;;;;;;;;;;;;;;;10.42;62.81;93893.69;4194354;28;19932;-55
2023/04/15 01:03:49;;;;;;;;;;;;;;;10.43;62.61;93899.75;4193667;28;19924;-53
2023/04/15 01:05:57;;;;;;;;;;;;;;;10.45;61.91;93895.97;4192936;28;19940;-55
2023/04/15 01:07:58;;;;;;;;;;;;;;;10.55;62.28;93908.81;4192712;28;19928;-55
2023/04/15 01:10:00;;;;;;;;;;;;;;;10.50;62.24;93912.97;4194079;28;19962;-49
2023/04/15 01:12:02;;;;;;;;;;;;;;;10.39;63.38;93909.78;4194523;28;20354;-43
2023/04/15 01:14:04;;;;;;;;;;;;;;;10.31;63.39;93899.38;4194069;28;19928;-43
2023/04/15 01:16:07;;;;;;;;;;;;;;;10.28;63.65;93899.66;4193483;28;20390;-43
2023/04/15 01:18:09;;;;;;;;;;;;;;;10.33;62.23;93896.59;4192637;28;19944;-44
2023/04/15 01:20:11;;;;;;;;;;;;;;;10.36;61.65;93890.97;4194445;28;19928;-44
2023/04/15 01:22:12;;;;;;;;;;;;;;;10.23;60.74;93892.34;4194610;28;20464;-45
2023/04/15 01:24:15;;;;;;;;;;;;;;;10.12;60.33;93890.16;4193791;28;19935;-48
2023/04/15 01:26:16;;;;;;;;;;;;;;;10.14;61.08;93892.63;4192262;28;20089;-42
2023/04/15 01:28:19;;;;;;;;;;;;;;;10.21;60.45;93889.09;4192338;28;19931;-42
2023/04/15 01:30:20;;;;;;;;;;;;;;;10.29;60.76;93892.66;4193747;28;19928;-43
2023/04/15 01:32:22;;;;;;;;;;;;;;;10.36;60.48;93888.34;4193542;28;19933;-41
2023/04/15 01:34:24;;;;;;;;;;;;;;;10.14;61.29;93885.56;4193120;28;19924;-42
2023/04/15 01:36:25;;;;;;;;;;;;;;;10.14;61.64;93887.38;4194241;28;20012;-42
2023/04/15 01:38:27;;;;;;;;;;;;;;;10.19;61.08;93885.84;4193900;28;19928;-43
2023/04/15 01:40:28;;;;;;;;;;;;;;;10.20;62.18;93882.25;4193542;28;19928;-43
2023/04/15 01:42:31;;;;;;;;;;;;;;;10.21;62.56;93891.72;4193472;28;20397;-42
2023/04/15 01:44:33;;;;;;;;;;;;;;;10.15;61.66;93889.81;4193223;28;20295;-51
2023/04/15 01:46:34;;;;;;;;;;;;;;;9.68;62.63;93895.22;4193104;28;19928;-53
2023/04/15 01:48:36;;;;;;;;;;;;;;;9.33;64.71;93895.56;4192734;28;19963;-53
2023/04/15 01:50:37;;;;;;;;;;;;;;;9.32;65.53;93901.78;4193630;28;20335;-54
2023/04/15 01:52:39;;;;;;;;;;;;;;;9.43;64.91;93908.44;4193955;28;20004;-55
2023/04/15 01:54:41;;;;;;;;;;;;;;;9.61;64.32;93905.56;4193031;28;19924;-50
2023/04/15 01:56:43;;;;;;;;;;;;;;;9.63;64.39;93912.22;4190201;28;20401;-52
2023/04/15 01:58:44;;;;;;;;;;;;;;;9.59;64.41;93910.13;4192049;28;20567;-53
2023/04/15 02:00:46;;;;;;;;;;;;;;;9.64;64.51;93913.06;4186312;28;19936;-52
2023/04/15 02:02:48;;;;;;;;;;;;;;;9.71;64.39;93914.00;4192853;28;19934;-55
2023/04/15 02:04:50;;;;;;;;;;;;;;;9.83;64.33;93917.84;4192851;28;20033;-54
2023/04/15 02:06:51;;;;;;;;;;;;;;;9.92;63.85;93912.56;4192907;28;20450;-54
2023/04/15 02:08:53;;;;;;;;;;;;;;;10.01;63.59;93914.13;4180386;28;20530;-54
2023/04/15 02:10:54;;;;;;;;;;;;;;;10.06;63.30;93901.31;4191470;28;19954;-54
2023/04/15 02:12:56;;;;;;;;;;;;;;;10.10;63.04;93904.41;4193499;28;20525;-51
2023/04/15 02:14:57;;;;;;;;;;;;;;;10.00;63.63;93891.56;4192233;28;19997;-52
2023/04/15 02:17:06;;;;;;;;;;;;;;;10.07;63.76;93896.91;4193772;28;20113;-54
2023/04/15 02:19:07;;;;;;;;;;;;;;;10.07;63.80;93892.50;4191991;28;19936;-56
2023/04/15 02:21:09;;;;;;;;;;;;;;;10.11;63.69;93893.78;4190981;28;19924;-52
2023/04/15 02:23:10;;;;;;;;;;;;;;;10.15;62.89;93899.47;4192352;28;19934;-54
2023/04/15 02:25:12;;;;;;;;;;;;;;;10.15;62.92;93896.84;4191848;28;19932;-50
2023/04/15 02:27:14;;;;;;;;;;;;;;;9.88;63.84;93896.41;4191849;28;19935;-53
2023/04/15 02:29:16;;;;;;;;;;;;;;;9.53;65.23;93902.97;4192605;28;19974;-55
2023/04/15 02:31:18;;;;;;;;;;;;;;;9.09;66.99;93908.75;4191270;28;20577;-55
2023/04/15 02:33:20;;;;;;;;;;;;;;;8.88;67.30;93904.06;4192400;28;19924;-55
2023/04/15 02:35:24;;;;;;;;;;;;;;;8.85;67.62;93896.59;4192960;28;19940;-53
2023/04/15 02:37:27;;;;;;;;;;;;;;;8.61;67.98;93911.34;4192759;28;19940;-55
2023/04/15 02:39:29;;;;;;;;;;;;;;;8.73;68.96;93906.56;4186338;28;20049;-54
2023/04/15 02:41:30;;;;;;;;;;;;;;;8.87;67.14;93903.28;4192649;28;19928;-53
2023/04/15 02:43:32;;;;;;;;;;;;;;;9.05;67.07;93899.63;4192963;28;19977;-56
2023/04/15 02:45:33;;;;;;;;;;;;;;;9.09;66.59;93899.09;4191503;28;19936;-54
2023/04/15 02:47:35;;;;;;;;;;;;;;;8.94;66.95;93903.41;4192404;28;20020;-52
2023/04/15 02:49:37;;;;;;;;;;;;;;;8.94;67.04;93906.03;4193072;28;20442;-56
2023/04/15 02:51:39;;;;;;;;;;;;;;;9.04;66.82;93905.84;4192683;28;20254;-57
2023/04/15 02:53:40;;;;;;;;;;;;;;;8.90;67.16;93905.53;4193124;28;19928;-51
2023/04/15 02:55:42;;;;;;;;;;;;;;;8.78;67.90;93910.31;4188630;28;19935;-52
2023/04/15 02:57:43;;;;;;;;;;;;;;;8.84;67.85;93911.47;4191890;28;19936;-55
2023/04/15 02:59:45;;;;;;;;;;;;;;;8.97;67.13;93909.13;4188518;28;23255;-54
2023/04/15 03:01:47;;;;;;;;;;;;;;;9.09;66.96;93913.97;4189257;28;20019;-54
2023/04/15 03:03:48;;;;;;;;;;;;;;;8.83;66.55;93909.81;4191213;28;20036;-55
2023/04/15 03:05:50;;;;;;;;;;;;;;;8.31;67.34;93915.44;4192745;28;19924;-52
2023/04/15 03:07:52;;;;;;;;;;;;;;;8.14;68.58;93922.44;4192521;28;19932;-55
2023/04/15 03:09:54;;;;;;;;;;;;;;;8.17;68.67;93922.94;4191633;28;19925;-54
2023/04/15 03:11:55;;;;;;;;;;;;;;;8.15;67.48;93919.69;4191115;28;20414;-53
2023/04/15 03:13:57;;;;;;;;;;;;;;;8.30;67.38;93924.22;4192389;28;19989;-53
2023/04/15 03:15:59;;;;;;;;;;;;;;;8.33;66.16;93934.34;4191060;28;19986;-54
2023/04/15 03:18:01;;;;;;;;;;;;;;;8.14;66.08;93933.69;4191676;28;20266;-51
2023/04/15 03:20:03;;;;;;;;;;;;;;;8.02;65.01;93934.97;4192506;28;19981;-54
2023/04/15 03:22:05;;;;;;;;;;;;;;;7.72;66.74;93937.25;4179274;28;19968;-56
2023/04/15 03:24:07;;;;;;;;;;;;;;;7.89;67.02;93945.88;4192179;28;20060;-55
2023/04/15 03:26:08;;;;;;;;;;;;;;;7.79;66.24;93927.78;4192764;28;20332;-55
2023/04/15 03:28:10;;;;;;;;;;;;;;;7.84;66.61;93934.31;4192051;28;20014;-52
2023/04/15 03:30:12;;;;;;;;;;;;;;;7.70;66.04;93936.59;4191724;28;19924;-47
2023/04/15 03:32:14;;;;;;;;;;;;;;;7.75;67.09;93942.13;4192173;28;19983;-41
2023/04/15 03:34:15;;;;;;;;;;;;;;;7.96;66.65;93943.47;4192854;28;19932;-41
2023/04/15 03:36:17;;;;;;;;;;;;;;;8.08;66.57;93946.56;4192806;28;20445;-43
2023/04/15 03:38:18;;;;;;;;;;;;;;;8.25;65.71;93940.38;4188372;28;19932;-42
2023/04/15 03:40:20;;;;;;;;;;;;;;;8.26;65.41;93954.22;4193252;28;19972;-42
2023/04/15 03:42:22;;;;;;;;;;;;;;;8.14;65.84;93962.38;4190148;28;20381;-40
2023/04/15 03:44:23;;;;;;;;;;;;;;;8.13;66.26;93965.97;4192472;28;20346;-42
2023/04/15 03:46:25;;;;;;;;;;;;;;;8.08;66.86;93973.47;4192598;28;20446;-43
2023/04/15 03:48:27;;;;;;;;;;;;;;;7.90;67.64;93972.81;4190455;28;19972;-44
2023/04/15 03:50:28;;;;;;;;;;;;;;;7.84;68.14;93978.66;4184505;28;19928;-42
2023/04/15 03:52:30;;;;;;;;;;;;;;;7.82;67.71;93989.22;4193160;28;19968;-43
2023/04/15 03:54:31;;;;;;;;;;;;;;;7.43;68.28;93979.34;4193088;28;19924;-42
2023/04/15 03:56:33;;;;;;;;;;;;;;;7.17;68.85;93985.44;4192250;28;19924;-43
2023/04/15 03:58:34;;;;;;;;;;;;;;;7.04;69.53;93981.63;4193102;28;19928;-42
2023/04/15 04:00:36;;;;;;;;;;;;;;;6.93;69.82;93982.72;4190161;28;19983;-42
2023/04/15 04:02:37;;;;;;;;;;;;;;;7.04;70.14;93984.22;4190096;28;20549;-42
2023/04/15 04:04:39;;;;;;;;;;;;;;;7.28;69.29;93981.72;4192020;28;20390;-42
2023/04/15 04:06:41;;;;;;;;;;;;;;;7.52;68.49;93972.38;4192485;28;20033;-42
2023/04/15 04:08:43;;;;;;;;;;;;;;;7.70;66.98;93980.91;4191855;28;19978;-42
2023/04/15 04:10:44;;;;;;;;;;;;;;;7.92;66.79;93979.47;4191832;28;19982;-42
2023/04/15 04:12:46;;;;;;;;;;;;;;;8.12;65.85;93980.00;4191704;28;20456;-42
2023/04/15 04:14:48;;;;;;;;;;;;;;;8.31;65.16;93976.25;4190470;28;19978;-43
2023/04/15 04:16:49;;;;;;;;;;;;;;;8.44;64.37;93977.59;4185487;28;19985;-42
2023/04/15 04:18:51;;;;;;;;;;;;;;;8.47;64.71;93985.09;4190938;28;19925;-44
2023/04/15 04:20:52;;;;;;;;;;;;;;;8.51;63.95;93974.16;4195103;28;19951;-42
2023/04/15 04:22:54;;;;;;;;;;;;;;;8.60;63.79;93983.63;4194090;28;19983;-41
2023/04/15 04:24:58;;;;;;;;;;;;;;;8.70;63.10;93977.41;4194141;28;19970;-41
2023/04/15 04:26:59;;;;;;;;;;;;;;;8.76;63.13;93976.75;4193936;28;19928;-41
2023/04/15 04:29:01;;;;;;;;;;;;;;;8.79;62.78;93977.22;4194211;28;19976;-42
2023/04/15 04:31:03;;;;;;;;;;;;;;;8.88;62.29;93972.00;4192674;28;19936;-43
2023/04/15 04:33:05;;;;;;;;;;;;;;;8.97;62.65;93976.22;4194541;28;19967;-43
2023/04/15 04:35:07;;;;;;;;;;;;;;;9.09;63.01;93979.28;4194091;28;19951;-42
2023/04/15 04:37:09;;;;;;;;;;;;;;;9.20;61.93;93979.72;4194183;28;20391;-42
2023/04/15 04:39:10;;;;;;;;;;;;;;;9.09;61.39;93982.72;4193018;28;19929;-41
2023/04/15 04:41:12;;;;;;;;;;;;;;;9.00;61.85;93978.50;4194497;28;19931;-41
2023/04/15 04:43:14;;;;;;;;;;;;;;;8.69;62.48;93988.81;4195190;28;20013;-43
2023/04/15 04:45:16;;;;;;;;;;;;;;;8.40;63.53;93993.56;4192817;28;19928;-41
2023/04/15 04:47:18;;;;;;;;;;;;;;;8.33;64.20;93999.59;4192752;28;19928;-44
2023/04/15 04:49:19;;;;;;;;;;;;;;;8.21;64.18;93993.84;4195249;28;19932;-41
2023/04/15 04:51:21;;;;;;;;;;;;;;;8.12;64.74;93993.03;4192768;28;19954;-43
2023/04/15 04:53:22;;;;;;;;;;;;;;;7.85;64.11;93998.53;4194423;28;19972;-42
2023/04/15 04:55:24;;;;;;;;;;;;;;;7.79;64.78;94000.00;4194041;28;19964;-42
2023/04/15 04:57:26;;;;;;;;;;;;;;;7.56;66.08;94000.56;4194272;28;19932;-42
2023/04/15 04:59:27;;;;;;;;;;;;;;;7.60;64.99;94008.91;4193491;28;20032;-43
2023/04/15 05:01:29;;;;;;;;;;;;;;;7.80;64.88;94012.84;4193808;28;19928;-42
2023/04/15 05:03:30;;;;;;;;;;;;;;;8.02;64.92;94015.03;4183778;28;19924;-43
2023/04/15 05:05:32;;;;;;;;;;;;;;;8.19;63.56;94024.50;4193179;28;20004;-41
2023/04/15 05:07:33;;;;;;;;;;;;;;;8.14;62.48;94019.78;4194671;28;19993;-43
2023/04/15 05:09:35;;;;;;;;;;;;;;;8.22;62.31;94024.22;4194649;28;20261;-41
2023/04/15 05:11:37;;;;;;;;;;;;;;;8.33;62.07;94028.28;4193673;28;19955;-41
2023/04/15 05:13:38;;;;;;;;;;;;;;;8.34;62.50;94032.53;4193859;28;19970;-41
2023/04/15 05:15:42;;;;;;;;;;;;;;;8.53;62.02;94034.84;4193363;28;19928;-43
2023/04/15 05:17:43;;;;;;;;;;;;;;;8.70;60.88;94040.09;4193352;28;19928;-43
2023/04/15 05:19:45;;;;;;;;;;;;;;;8.91;61.46;94036.97;4193518;28;20150;-44
2023/04/15 05:21:46;;;;;;;;;;;;;;;9.14;60.70;94042.31;4193060;28;19933;-43
2023/04/15 05:23:48;;;;;;;;;;;;;;;9.41;59.98;94043.72;4193816;28;19964;-44
2023/04/15 05:25:50;;;;;;;;;;;;;;;9.67;59.44;94040.84;4194611;28;20012;-41
2023/04/15 05:27:51;;;;;;;;;;;;;;;9.78;57.78;94042.28;4193699;28;19951;-43
2023/04/15 05:29:53;;;;;;;;;;;;;;;9.78;57.84;94035.25;4193213;28;20062;-42
2023/04/15 05:31:54;;;;;;;;;;;;;;;9.82;57.35;94035.72;4193661;28;20300;-42
2023/04/15 05:33:56;;;;;;;;;;;;;;;9.95;57.65;94029.94;4192435;28;19982;-46
2023/04/15 05:35:57;;;;;;;;;;;;;;;10.07;57.18;94027.75;4191283;28;20075;-42
2023/04/15 05:37:59;;;;;;;;;;;;;;;10.25;56.12;94031.72;4193189;28;19924;-43
2023/04/15 05:40:01;;;;;;;;;;;;;;;10.34;56.43;94029.09;4192688;28;20323;-41
2023/04/15 05:42:04;;;;;;;;;;;;;;;10.36;56.85;94027.13;4192744;28;19924;-42
2023/04/15 05:44:06;;;;;;;;;;;;;;;10.40;56.73;94036.25;4192860;28;20380;-42
2023/04/15 05:46:08;;;;;;;;;;;;;;;10.46;56.75;94035.56;4192281;28;19928;-40
2023/04/15 05:48:09;;;;;;;;;;;;;;;10.55;56.15;94036.31;4192500;28;19935;-44
2023/04/15 05:50:11;;;;;;;;;;;;;;;10.63;56.00;94039.69;4193145;28;20419;-43
2023/04/15 05:52:13;;;;;;;;;;;;;;;10.57;55.38;94029.91;4193877;28;20123;-43
2023/04/15 05:54:15;;;;;;;;;;;;;;;10.14;56.37;94034.75;4193673;28;19968;-42
2023/04/15 05:56:19;;;;;;;;;;;;;;;10.21;57.20;94035.69;4193601;28;19946;-52
2023/04/15 05:58:21;;;;;;;;;;;;;;;10.24;56.52;94030.13;4192719;28;19943;-54
2023/04/15 06:00:22;;;;;;;;;;;;;;;10.34;56.51;94047.41;4192487;28;20013;-55
2023/04/15 06:02:24;;;;;;;;;;;;;;;10.56;56.62;94049.25;4184147;28;19933;-55
2023/04/15 06:04:25;;;;;;;;;;;;;;;10.57;55.67;94050.88;4188042;28;19924;-56
2023/04/15 06:06:27;;;;;;;;;;;;;;;10.27;55.98;94049.09;4193970;28;19928;-56
2023/04/15 06:08:29;;;;;;;;;;;;;;;9.91;56.77;94046.97;4192652;28;20038;-52
2023/04/15 06:10:35;;;;;;;;;;;;;;;9.79;57.43;94051.78;4193115;28;20016;-54
2023/04/15 06:12:36;;;;;;;;;;;;;;;10.01;57.51;94052.81;4193194;28;19971;-51
2023/04/15 06:14:39;;;;;;;;;;;;;;;10.27;57.41;94051.69;4192898;28;19928;-56
2023/04/15 06:16:41;;;;;;;;;;;;;;;10.52;57.08;94052.38;4193386;28;19931;-52
2023/04/15 06:18:42;;;;;;;;;;;;;;;10.78;56.78;94057.28;4192482;28;19936;-56
2023/04/15 06:20:44;;;;;;;;;;;;;;;10.66;55.77;94062.09;4192788;28;20317;-41
2023/04/15 06:22:46;;;;;;;;;;;;;;;10.72;55.50;94063.22;4193415;28;20009;-43
2023/04/15 06:24:49;;;;;;;;;;;;;;;10.89;55.06;94066.53;4191669;28;19928;-42
2023/04/15 06:26:50;;;;;;;;;;;;;;;10.90;54.60;94073.38;4193586;28;19925;-43
2023/04/15 06:28:52;;;;;;;;;;;;;;;11.01;55.20;94068.56;4192450;28;20387;-44
2023/04/15 06:30:54;;;;;;;;;;;;;;;10.78;54.87;94078.22;4192219;28;20300;-41
2023/04/15 06:32:55;;;;;;;;;;;;;;;10.72;55.04;94078.94;4191769;28;19936;-42
2023/04/15 06:34:57;;;;;;;;;;;;;;;10.68;55.16;94081.06;4189369;28;20001;-43
2023/04/15 06:37:00;;;;;;;;;;;;;;;10.90;54.85;94081.25;4192633;28;19928;-43
2023/04/15 06:39:01;;;;;;;;;;;;;;;11.05;54.49;94082.91;4192352;28;19943;-47
2023/04/15 06:41:03;;;;;;;;;;;;;;;10.91;54.48;94078.44;4193124;28;20035;-41
2023/04/15 06:43:05;;;;;;;;;;;;;;;10.86;54.55;94086.00;4190508;28;20027;-42
2023/04/15 06:45:07;;;;;;;;;;;;;;;10.57;55.02;94092.78;4192089;28;19970;-45
2023/04/15 06:47:09;;;;;;;;;;;;;;;10.71;55.15;94090.38;4191723;28;19924;-42
2023/04/15 06:49:11;;;;;;;;;;;;;;;10.94;55.12;94099.06;4192598;28;19924;-43
2023/04/15 06:51:12;;;;;;;;;;;;;;;11.31;53.55;94092.19;4192714;28;19931;-44
2023/04/15 06:53:14;;;;;;;;;;;;;;;11.44;52.64;94086.31;4192911;28;20572;-44
2023/04/15 06:55:16;;;;;;;;;;;;;;;11.19;53.18;94086.56;4190522;28;20006;-42
2023/04/15 06:57:17;;;;;;;;;;;;;;;11.16;53.43;94081.66;4192057;28;20365;-41
2023/04/15 06:59:19;;;;;;;;;;;;;;;11.27;53.49;94083.03;4191662;28;19924;-42
2023/04/15 07:01:21;;;;;;;;;;;;;;;11.59;53.11;94081.09;4192078;28;19928;-43
2023/04/15 07:03:23;;;;;;;;;;;;;;;12.02;52.51;94076.03;4191542;28;20436;-42
2023/04/15 07:05:25;;;;;;;;;;;;;;;12.34;50.85;94085.31;4189437;28;19982;-43
2023/04/15 07:07:26;;;;;;;;;;;;;;;12.56;50.61;94083.56;4192803;28;19998;-46
2023/04/15 07:09:28;;;;;;;;;;;;;;;12.74;49.96;94080.50;4192261;28;20039;-40
2023/04/15 07:11:30;;;;;;;;;;;;;;;12.83;49.29;94078.56;4190925;28;19932;-46
2023/04/15 07:13:31;;;;;;;;;;;;;;;13.05;48.99;94074.09;4191590;28;19990;-48
2023/04/15 07:15:33;;;;;;;;;;;;;;;13.02;48.68;94072.66;4192226;28;19986;-42
2023/04/15 07:17:35;;;;;;;;;;;;;;;13.09;48.25;94076.16;4191420;28;20285;-45
2023/04/15 07:19:36;;;;;;;;;;;;;;;13.26;47.97;94081.16;4192158;28;20025;-46
2023/04/15 07:21:38;;;;;;;;;;;;;;;13.47;48.27;94073.25;4187712;28;19936;-47
2023/04/15 07:23:42;;;;;;;;;;;;;;;13.54;48.23;94081.19;4191654;28;20055;-45
2023/04/15 07:25:43;;;;;;;;;;;;;;;13.25;48.46;94075.09;4190490;28;19959;-45
2023/04/15 07:27:45;;;;;;;;;;;;;;;13.50;48.63;94079.94;4191736;28;19993;-46
2023/04/15 07:29:47;;;;;;;;;;;;;;;13.70;47.73;94077.41;4189149;28;20020;-48
2023/04/15 07:31:48;;;;;;;;;;;;;;;13.76;46.87;94081.09;4191855;28;19931;-46
2023/04/15 07:33:50;;;;;;;;;;;;;;;13.97;47.45;94077.59;4191223;28;19975;-44
2023/04/15 07:35:52;;;;;;;;;;;;;;;14.05;46.51;94072.97;4192177;28;19928;-46
2023/04/15 07:37:53;;;;;;;;;;;;;;;14.10;46.35;94080.28;4188204;28;19929;-46
2023/04/15 07:39:55;;;;;;;;;;;;;;;14.21;45.48;94076.28;4189938;28;19951;-44
2023/04/15 07:41:57;;;;;;;;;;;;;;;14.23;45.17;94075.06;4188860;28;19944;-46
2023/04/15 07:43:59;;;;;;;;;;;;;;;14.12;45.71;94078.25;4192045;28;19954;-46
2023/04/15 07:46:01;;;;;;;;;;;;;;;14.04;46.36;94081.06;4190903;28;20037;-48
2023/04/15 07:48:02;;;;;;;;;;;;;;;14.20;49.02;94078.09;4191474;28;19978;-46
2023/04/15 07:50:05;;;;;;;;;;;;;;;14.25;47.13;94080.94;4192501;28;20019;-47
2023/04/15 07:52:07;;;;;;;;;;;;;;;14.35;46.73;94088.50;4188446;28;19990;-45
2023/04/15 07:54:08;;;;;;;;;;;;;;;14.28;47.98;94087.63;4191058;28;20004;-44
2023/04/15 07:56:10;;;;;;;;;;;;;;;14.51;48.70;94095.22;4195264;28;19930;-45
2023/04/15 07:58:12;;;;;;;;;;;;;;;14.71;52.49;94095.31;4195221;28;19929;-48
2023/04/15 08:00:13;;;;;;;;;;;;;;;14.56;46.62;94098.09;4193584;28;20019;-45
2023/04/15 08:02:15;;;;;;;;;;;;;;;14.48;48.27;94095.63;4185795;28;19994;-45
2023/04/15 08:04:17;;;;;;;;;;;;;;;14.77;50.34;94107.69;4192792;28;19928;-62
2023/04/15 08:06:19;;;;;;;;;;;;;;;14.82;45.54;94101.81;4190723;28;19971;-65
2023/04/15 08:08:21;;;;;;;;;;;;;;;14.62;44.38;94099.94;4195927;28;19924;-66
2023/04/15 08:10:22;;;;;;;;;;;;;;;14.35;45.93;94099.03;4194771;28;19928;-60
2023/04/15 08:12:24;;;;;;;;;;;;;;;14.08;45.05;94098.09;4194353;28;19924;-60
2023/04/15 08:14:26;;;;;;;;;;;;;;;13.87;45.72;94099.00;4194381;28;20268;-66
2023/04/15 08:16:28;;;;;;;;;;;;;;;14.08;46.79;94098.09;4188616;28;20364;-70
2023/04/15 08:18:30;;;;;;;;;;;;;;;14.58;59.48;94103.19;4194875;28;19928;-71
2023/04/15 08:20:32;;;;;;;;;;;;;;;14.87;48.00;94096.78;4195870;28;20372;-69
2023/04/15 08:22:33;;;;;;;;;;;;;;;15.05;45.40;94099.63;4194051;28;19959;-71
2023/04/15 08:24:35;;;;;;;;;;;;;;;15.45;54.65;94102.31;4194286;28;20043;-66
2023/04/15 08:26:39;;;;;;;;;;;;;;;15.88;51.41;94103.72;4193250;28;19924;-67
2023/04/15 08:28:41;;;;;;;;;;;;;;;15.92;43.56;94099.66;4195160;28;19983;-67
2023/04/15 08:30:42;;;;;;;;;;;;;;;15.95;43.44;94094.75;4193719;28;20492;-64
2023/04/15 08:32:45;;;;;;;;;;;;;;;16.06;43.94;94101.22;4193366;28;19925;-65
2023/04/15 08:34:47;;;;;;;;;;;;;;;16.35;41.01;94085.91;4191890;28;19925;-65
2023/04/15 08:36:49;;;;;;;;;;;;;;;16.53;39.99;94085.22;4193738;28;19924;-64
2023/04/15 08:38:50;;;;;;;;;;;;;;;16.68;39.68;94077.81;4193051;28;19924;-65
2023/04/15 08:40:52;;;;;;;;;;;;;;;16.84;38.24;94075.72;4193541;28;19940;-62
2023/04/15 08:42:53;;;;;;;;;;;;;;;16.98;37.53;94078.06;4194444;28;20369;-62
2023/04/15 08:44:55;;;;;;;;;;;;;;;16.69;37.12;94075.97;4190980;28;19935;-61
2023/04/15 08:46:59;;;;;;;;;;;;;;;16.27;37.54;94079.00;4193339;28;20011;-66
2023/04/15 08:49:02;;;;;;;;;;;;;;;15.47;38.75;94084.44;4193103;28;19998;-65
2023/04/15 08:51:04;;;;;;;;;;;;;;;15.08;39.63;94080.78;4193521;28;20288;-66
2023/04/15 08:53:06;;;;;;;;;;;;;;;15.04;39.77;94082.19;4191440;28;19931;-65
2023/04/15 08:55:08;;;;;;;;;;;;;;;15.23;39.18;94083.22;4190667;28;20022;-69
2023/04/15 08:57:10;;;;;;;;;;;;;;;15.59;38.72;94078.53;4193402;28;20601;-68
2023/04/15 08:59:12;;;;;;;;;;;;;;;15.52;38.27;94079.34;4193087;28;20095;-61
2023/04/15 09:01:13;;;;;;;;;;;;;;;15.30;38.98;94065.56;4191608;28;19924;-63
2023/04/15 09:03:16;;;;;;;;;;;;;;;15.48;39.00;94064.94;4193175;28;20009;-71
2023/04/15 09:05:20;;;;;;;;;;;;;;;15.44;38.27;94063.72;4192090;28;19932;-70
2023/04/15 09:07:21;;;;;;;;;;;;;;;15.48;38.14;94067.56;4191566;28;19972;-62
2023/04/15 09:09:23;;;;;;;;;;;;;;;15.87;39.06;94068.56;4193604;28;19928;-62
2023/04/15 09:11:25;;;;;;;;;;;;;;;16.20;43.16;94070.31;4194467;28;20392;-63
2023/04/15 09:13:26;;;;;;;;;;;;;;;16.54;37.43;94053.28;4191280;28;20497;-64
2023/04/15 09:15:28;;;;;;;;;;;;;;;16.55;43.18;94056.72;4193593;28;20007;-65
2023/04/15 09:17:31;;;;;;;;;;;;;;;16.84;35.74;94046.63;4190014;28;19933;-63
2023/04/15 09:19:33;;;;;;;;;;;;;;;17.13;34.54;94042.56;4194403;28;20022;-58
2023/04/15 09:21:34;;;;;;;;;;;;;;;17.36;42.47;94042.78;4194531;28;19924;-59
2023/04/15 09:23:37;;;;;;;;;;;;;;;17.66;33.94;94047.41;4193725;28;19931;-63
2023/04/15 09:25:39;;;;;;;;;;;;;;;17.74;35.07;94044.44;4190640;28;20009;-63
2023/04/15 09:27:47;;;;;;;;;;;;;;;17.73;34.14;94050.78;4193969;28;20033;-63
2023/04/15 09:29:49;;;;;;;;;;;;;;;17.72;33.54;94053.66;4193076;28;20043;-63
2023/04/15 09:31:51;;;;;;;;;;;;;;;17.69;33.37;94038.22;4193293;28;20096;-64
2023/04/15 09:33:53;;;;;;;;;;;;;;;17.67;34.03;94049.00;4187919;28;19951;-64
2023/04/15 09:35:58;;;;;;;;;;;;;;;17.81;32.04;94057.66;4185096;28;20182;-63
2023/04/15 09:38:03;;;;;;;;;;;;;;;17.90;31.45;94059.00;4188822;28;20662;-62
2023/04/15 09:40:05;;;;;;;;;;;;;;;17.84;28.83;94037.88;4191094;28;19950;-63
2023/04/15 09:42:07;;;;;;;;;;;;;;;17.76;28.96;94044.25;4193179;28;20071;-61
2023/04/15 09:44:21;;;;;;;;;;;;;;;17.79;28.76;94035.88;4192229;28;20012;-60
2023/04/15 09:46:42;;;;;;;;;;;;;;;17.68;28.48;94033.91;4191047;28;19973;-63
2023/04/15 09:48:43;;;;;;;;;;;;;;;17.37;28.95;94038.28;4190328;28;19978;-66
2023/04/15 09:50:45;;;;;;;;;;;;;;;16.96;29.65;94035.13;4192586;28;19924;-61
2023/04/15 09:52:47;;;;;;;;;;;;;;;16.84;29.25;94028.09;4192651;28;20365;-61
2023/04/15 09:54:49;;;;;;;;;;;;;;;16.97;30.57;94038.59;4193248;28;19929;-61
2023/04/15 09:56:51;;;;;;;;;;;;;;;16.76;31.69;94048.47;4191503;28;20424;-61
2023/04/15 09:58:55;;;;;;;;;;;;;;;16.85;35.03;94051.72;4192386;28;20001;-63
2023/04/15 10:00:57;;;;;;;;;;;;;;;16.73;35.83;94053.38;4192415;28;19925;-63
2023/04/15 10:02:59;;;;;;;;;;;;;;;16.72;35.52;94046.47;4192758;28;20318;-62
2023/04/15 10:05:00;;;;;;;;;;;;;;;16.63;35.07;94055.66;4192664;28;19990;-61
2023/04/15 10:07:03;;;;;;;;;;;;;;;16.89;35.11;94058.19;4191464;28;19959;-61
2023/04/15 10:09:05;;;;;;;;;;;;;;;17.19;33.61;94063.69;4190658;28;20344;-61
2023/04/15 10:11:07;;;;;;;;;;;;;;;17.21;30.12;94055.53;4192790;28;19985;-61
2023/04/15 10:13:09;;;;;;;;;;;;;;;17.37;29.98;94040.94;4191147;28;19998;-61
2023/04/15 10:15:15;;;;;;;;;;;;;;;17.68;28.90;94034.75;4190117;28;20133;-62
2023/04/15 10:17:17;;;;;;;;;;;;;;;17.73;29.54;94026.16;4190082;28;20018;-61
2023/04/15 10:19:19;;;;;;;;;;;;;;;17.48;29.59;94029.63;4193034;28;20287;-61
2023/04/15 10:21:22;;;;;;;;;;;;;;;17.58;28.88;94032.59;4189385;28;19971;-61
2023/04/15 10:23:24;;;;;;;;;;;;;;;17.80;28.26;94030.31;4192867;28;19990;-61
2023/04/15 10:25:26;;;;;;;;;;;;;;;17.98;28.04;94026.09;4192492;28;20026;-61
2023/04/15 10:27:28;;;;;;;;;;;;;;;18.34;27.88;94022.59;4192068;28;20008;-61
2023/04/15 10:29:29;;;;;;;;;;;;;;;18.68;27.11;94007.06;4191997;28;19932;-62
2023/04/15 10:31:31;;;;;;;;;;;;;;;18.61;28.38;94019.63;4191098;28;20471;-63
2023/04/15 10:33:33;;;;;;;;;;;;;;;18.44;28.15;94016.78;4190696;28;19928;-62
2023/04/15 10:35:34;;;;;;;;;;;;;;;18.45;28.47;94023.69;4191592;28;19925;-61
2023/04/15 10:37:36;;;;;;;;;;;;;;;18.26;28.61;94025.56;4190661;28;20041;-62